Time;durP1;ratioP1;P1;durP2;ratioP2;P2;SDS_P1;SDS_P2;PMS_P1;PMS_P2;Temp;Humidity;BMP_temperature;BMP_pressure;BME280_temperature;BME280_humidity;BME280_pressure;Samples;Min_cycle;Max_cycle;Signal;HPM_P1;HPM_P2
2023/06/28 00:00:00;;;;;;;2.07;1.27;;;25.60;99.90;;;;;;5013881;28;20289;-91
2023/06/28 00:02:36;;;;;;;4.33;1.20;;;25.90;99.90;;;;;;4997410;28;20209;-90
2023/06/28 00:05:09;;;;;;;1.80;1.10;;;26.00;99.90;;;;;;5011744;28;20205;-91
2023/06/28 00:07:41;;;;;;;3.77;1.70;;;26.00;99.90;;;;;;5010518;28;20308;-86
2023/06/28 00:10:12;;;;;;;1.93;1.50;;;26.00;99.90;;;;;;5004801;28;20301;-86
2023/06/28 00:12:43;;;;;;;2.93;1.50;;;25.90;99.90;;;;;;5009181;28;20241;-86
2023/06/28 00:15:15;;;;;;;2.23;1.30;;;25.80;99.90;;;;;;5003184;28;20597;-87
2023/06/28 00:17:48;;;;;;;2.30;1.17;;;25.70;99.90;;;;;;5007369;28;20640;-86
2023/06/28 00:20:19;;;;;;;2.20;1.30;;;25.40;99.90;;;;;;5002707;28;20202;-87
2023/06/28 00:22:50;;;;;;;1.87;1.30;;;25.50;99.90;;;;;;5004448;28;20237;-86
2023/06/28 00:25:21;;;;;;;2.60;1.20;;;25.00;99.90;;;;;;5005024;28;20323;-87
2023/06/28 00:27:52;;;;;;;1.93;1.20;;;25.20;99.90;;;;;;5008784;28;20209;-86
2023/06/28 00:30:24;;;;;;;2.60;1.40;;;25.50;99.90;;;;;;4993465;28;20206;-86
2023/06/28 00:32:57;;;;;;;1.77;1.27;;;25.80;99.90;;;;;;4992902;28;20226;-85
2023/06/28 00:35:28;;;;;;;3.17;1.37;;;26.10;99.90;;;;;;5005085;28;20233;-86
2023/06/28 00:37:59;;;;;;;4.17;1.57;;;26.20;99.90;;;;;;5006422;28;20217;-85
2023/06/28 00:40:29;;;;;;;1.90;1.20;;;26.30;99.90;;;;;;5011593;28;20300;-84
2023/06/28 00:43:00;;;;;;;1.83;1.23;;;26.20;99.90;;;;;;5008605;28;20202;-85
2023/06/28 00:45:32;;;;;;;1.40;1.30;;;26.30;99.90;;;;;;5013860;28;20244;-85
2023/06/28 00:48:05;;;;;;;3.40;1.20;;;26.00;99.90;;;;;;5000829;28;20198;-84
2023/06/28 00:50:38;;;;;;;1.70;1.30;;;26.10;99.90;;;;;;4997521;28;20264;-84
2023/06/28 00:53:10;;;;;;;3.27;1.47;;;26.00;99.90;;;;;;5000376;28;20293;-83
2023/06/28 00:55:41;;;;;;;1.40;1.00;;;26.10;99.90;;;;;;5000172;28;20755;-83
2023/06/28 00:58:12;;;;;;;2.77;1.30;;;26.10;99.90;;;;;;5005614;28;20244;-84
2023/06/28 01:00:44;;;;;;;1.30;1.20;;;25.90;99.90;;;;;;4994855;28;20217;-84
2023/06/28 01:03:20;;;;;;;1.80;1.20;;;25.40;99.90;;;;;;4993572;28;20675;-85
2023/06/28 01:05:52;;;;;;;1.47;1.37;;;25.30;99.90;;;;;;5016373;28;20205;-85
2023/06/28 01:08:24;;;;;;;1.40;1.30;;;25.20;99.90;;;;;;5013361;28;20256;-85
2023/06/28 01:10:56;;;;;;;2.67;1.30;;;24.90;99.90;;;;;;5033440;28;20209;-86
2023/06/28 01:13:27;;;;;;;1.53;1.40;;;24.30;99.90;;;;;;5024349;28;20281;-86
2023/06/28 01:15:58;;;;;;;2.20;1.43;;;24.40;99.90;;;;;;5011369;28;20229;-85
2023/06/28 01:18:33;;;;;;;1.60;1.50;;;24.50;99.90;;;;;;5006321;28;20212;-85
2023/06/28 01:21:07;;;;;;;2.20;1.10;;;23.90;99.90;;;;;;5018850;28;20213;-89
2023/06/28 01:23:41;;;;;;;2.90;1.33;;;23.80;99.90;;;;;;5016837;28;20202;-90
2023/06/28 01:26:14;;;;;;;4.30;1.40;;;23.80;99.90;;;;;;5018378;28;20292;-89
2023/06/28 01:28:46;;;;;;;2.37;1.47;;;23.90;99.90;;;;;;5017459;28;20244;-89
2023/06/28 01:31:17;;;;;;;2.20;1.33;;;24.00;99.90;;;;;;5002399;28;20310;-89
2023/06/28 01:33:49;;;;;;;1.50;1.40;;;23.80;99.90;;;;;;4999223;28;20245;-88
2023/06/28 01:36:20;;;;;;;1.93;1.30;;;23.80;99.90;;;;;;4999063;28;20217;-89
2023/06/28 01:38:54;;;;;;;3.20;1.50;;;24.00;99.90;;;;;;5003273;28;20278;-89
2023/06/28 01:41:26;;;;;;;1.33;1.00;;;24.00;99.90;;;;;;5024703;28;20205;-88
2023/06/28 01:43:58;;;;;;;1.60;1.50;;;23.80;99.90;;;;;;5024588;28;20240;-89
2023/06/28 01:46:30;;;;;;;3.00;1.40;;;23.80;99.90;;;;;;5014044;28;20218;-89
2023/06/28 01:49:03;;;;;;;1.60;1.40;;;23.70;99.90;;;;;;5004804;28;20644;-89
2023/06/28 01:51:34;;;;;;;1.90;1.43;;;23.80;99.90;;;;;;5016967;28;20308;-90
2023/06/28 01:54:08;;;;;;;1.93;1.17;;;23.70;99.90;;;;;;5015905;28;20662;-88
2023/06/28 01:56:39;;;;;;;3.00;1.37;;;23.70;99.90;;;;;;5007768;28;20221;-89
2023/06/28 01:59:11;;;;;;;4.17;1.33;;;23.70;99.90;;;;;;5015138;28;20713;-89
2023/06/28 02:01:45;;;;;;;3.07;1.40;;;23.60;99.90;;;;;;5017386;28;20813;-89
2023/06/28 02:04:16;;;;;;;1.60;1.20;;;23.40;99.90;;;;;;4996471;28;20305;-89
2023/06/28 02:06:48;;;;;;;2.90;1.50;;;23.50;99.90;;;;;;5014554;28;20257;-88
2023/06/28 02:09:21;;;;;;;1.50;1.40;;;23.40;99.90;;;;;;5003429;28;20202;-89
2023/06/28 02:11:52;;;;;;;2.77;1.20;;;23.40;99.90;;;;;;5025967;28;20289;-89
2023/06/28 02:14:23;;;;;;;2.43;1.50;;;23.40;99.90;;;;;;5035105;28;20703;-89
2023/06/28 02:16:54;;;;;;;2.23;1.47;;;23.20;99.90;;;;;;5035367;28;20282;-89
2023/06/28 02:19:25;;;;;;;1.90;1.30;;;23.20;99.90;;;;;;5011999;28;20203;-85
2023/06/28 02:21:56;;;;;;;3.07;1.77;;;23.20;99.90;;;;;;5012689;28;20241;-85
2023/06/28 02:24:29;;;;;;;2.90;1.33;;;23.20;99.90;;;;;;5011486;28;20263;-86
2023/06/28 02:27:00;;;;;;;4.30;1.40;;;23.10;99.90;;;;;;5007354;28;20297;-84
2023/06/28 02:29:31;;;;;;;2.60;1.10;;;23.00;99.90;;;;;;5003199;28;20606;-86
2023/06/28 02:32:02;;;;;;;1.70;1.30;;;23.00;99.90;;;;;;4995126;28;20659;-85
2023/06/28 02:34:33;;;;;;;1.60;1.50;;;23.00;99.90;;;;;;4994161;28;20699;-85
2023/06/28 02:37:05;;;;;;;3.50;1.47;;;22.90;99.90;;;;;;4994561;28;20643;-86
2023/06/28 02:39:39;;;;;;;1.70;1.57;;;23.00;99.90;;;;;;5006590;28;20298;-86
2023/06/28 02:42:10;;;;;;;3.17;1.53;;;22.90;99.90;;;;;;5013336;28;20245;-85
2023/06/28 02:44:40;;;;;;;3.00;1.40;;;22.90;99.90;;;;;;5003742;28;20206;-84
2023/06/28 02:47:11;;;;;;;3.13;1.30;;;22.80;99.90;;;;;;5004109;28;20614;-84
2023/06/28 02:49:42;;;;;;;2.17;1.47;;;22.70;99.90;;;;;;5012540;28;20256;-86
2023/06/28 02:52:13;;;;;;;2.30;1.40;;;22.60;99.90;;;;;;5000802;28;20201;-85
2023/06/28 02:54:46;;;;;;;1.90;1.50;;;22.60;99.90;;;;;;5016094;28;20313;-86
2023/06/28 02:57:17;;;;;;;1.43;1.20;;;22.60;99.90;;;;;;5021069;28;20244;-85
2023/06/28 02:59:48;;;;;;;2.37;1.30;;;22.60;99.90;;;;;;5008552;28;20635;-86
2023/06/28 03:02:19;;;;;;;1.70;1.33;;;22.50;99.90;;;;;;5006077;28;20571;-86
2023/06/28 03:04:50;;;;;;;2.47;1.37;;;22.50;99.90;;;;;;5003280;28;20241;-85
2023/06/28 03:07:21;;;;;;;2.30;1.33;;;22.50;99.90;;;;;;5009119;28;20222;-85
2023/06/28 03:09:54;;;;;;;3.23;1.60;;;22.40;99.90;;;;;;4997597;28;20617;-85
2023/06/28 03:12:26;;;;;;;3.83;2.37;;;22.30;99.90;;;;;;4992967;28;20301;-85
2023/06/28 03:14:57;;;;;;;3.53;2.00;;;22.30;99.90;;;;;;4993070;28;20210;-85
2023/06/28 03:17:31;;;;;;;2.13;1.80;;;22.10;99.90;;;;;;5011821;28;20663;-88
2023/06/28 03:20:02;;;;;;;2.40;1.40;;;22.00;99.90;;;;;;5001750;28;20581;-85
2023/06/28 03:22:33;;;;;;;2.17;1.80;;;22.00;99.90;;;;;;4998320;28;20205;-85
2023/06/28 03:25:09;;;;;;;6.40;1.90;;;21.90;99.90;;;;;;4994687;28;20210;-85
2023/06/28 03:27:40;;;;;;;3.27;1.97;;;21.80;99.90;;;;;;5007224;28;20206;-87
2023/06/28 03:30:11;;;;;;;7.80;2.60;;;21.70;99.90;;;;;;5000141;28;20532;-85
2023/06/28 03:32:43;;;;;;;6.20;2.10;;;21.60;99.90;;;;;;4994084;28;20666;-85
2023/06/28 03:35:14;;;;;;;5.77;2.57;;;21.50;99.90;;;;;;5003673;28;20315;-85
2023/06/28 03:37:52;;;;;;;4.70;1.57;;;21.40;99.90;;;;;;5006656;28;20303;-86
2023/06/28 03:40:25;;;;;;;12.10;4.93;;;21.20;99.90;;;;;;5003706;28;20224;-85
2023/06/28 03:42:56;;;;;;;4.93;2.97;;;21.20;99.90;;;;;;5000098;28;20234;-85
2023/06/28 03:45:27;;;;;;;2.67;1.67;;;21.00;99.90;;;;;;5001553;28;20229;-85
2023/06/28 03:47:58;;;;;;;4.10;1.73;;;20.90;99.90;;;;;;5007688;28;20209;-87
2023/06/28 03:50:29;;;;;;;1.93;1.70;;;20.70;99.90;;;;;;5014142;28;20206;-88
2023/06/28 03:53:01;;;;;;;1.97;1.53;;;20.70;99.90;;;;;;5011092;28;20210;-88
2023/06/28 03:55:34;;;;;;;2.13;1.53;;;20.60;99.90;;;;;;5005632;28;20253;-88
2023/06/28 03:58:06;;;;;;;2.10;1.57;;;20.60;99.90;;;;;;5015231;28;20248;-89
2023/06/28 04:00:37;;;;;;;1.40;1.30;;;20.50;99.90;;;;;;5004100;28;20277;-89
2023/06/28 04:03:09;;;;;;;2.10;1.20;;;20.50;99.90;;;;;;5009940;28;20229;-89
2023/06/28 04:05:40;;;;;;;2.43;1.50;;;20.40;99.90;;;;;;5005046;28;20765;-90
2023/06/28 04:08:11;;;;;;;2.37;1.40;;;20.30;99.90;;;;;;5013766;28;20312;-90
2023/06/28 04:10:45;;;;;;;2.50;1.33;;;20.20;99.90;;;;;;5015304;28;20236;-89
2023/06/28 04:13:17;;;;;;;3.07;2.13;;;20.20;99.90;;;;;;5015276;28;20213;-89
2023/06/28 04:15:48;;;;;;;1.90;1.70;;;20.20;99.90;;;;;;5015943;28;20230;-89
2023/06/28 04:18:20;;;;;;;3.03;1.70;;;20.10;99.90;;;;;;5002448;28;20197;-89
2023/06/28 04:20:52;;;;;;;6.47;2.10;;;20.10;99.90;;;;;;5010264;28;20241;-87
2023/06/28 04:23:23;;;;;;;6.10;2.07;;;20.00;99.90;;;;;;5014030;28;20213;-90
2023/06/28 04:25:57;;;;;;;2.07;1.63;;;19.90;99.90;;;;;;4995380;28;20213;-88
2023/06/28 04:28:29;;;;;;;1.93;1.30;;;19.90;99.90;;;;;;5003141;28;20206;-89
2023/06/28 04:31:01;;;;;;;1.77;1.50;;;19.90;99.90;;;;;;5001980;28;20209;-88
2023/06/28 04:33:35;;;;;;;2.50;1.20;;;19.90;99.90;;;;;;5007321;28;20216;-90
2023/06/28 04:36:06;;;;;;;2.63;1.20;;;19.90;99.90;;;;;;4999645;28;20256;-88
2023/06/28 04:38:39;;;;;;;2.23;1.40;;;19.90;99.90;;;;;;5007706;28;20206;-87
2023/06/28 04:41:12;;;;;;;2.80;1.40;;;19.90;99.90;;;;;;5010770;28;20260;-89
2023/06/28 04:43:43;;;;;;;1.50;1.40;;;19.80;99.90;;;;;;5009976;28;20313;-89
2023/06/28 04:46:15;;;;;;;2.13;1.37;;;19.80;99.90;;;;;;5006398;28;20198;-89
2023/06/28 04:48:46;;;;;;;1.90;1.70;;;19.70;99.90;;;;;;5001043;28;20559;-89
2023/06/28 04:51:18;;;;;;;3.00;1.40;;;19.70;99.90;;;;;;5002415;28;20722;-89
2023/06/28 04:53:49;;;;;;;1.77;1.40;;;19.60;99.90;;;;;;5013078;28;20607;-89
2023/06/28 04:56:22;;;;;;;1.57;1.23;;;19.60;99.90;;;;;;5017067;28;20316;-89
2023/06/28 04:58:54;;;;;;;1.80;1.27;;;19.60;99.90;;;;;;5008496;28;20200;-89
2023/06/28 05:01:26;;;;;;;4.47;1.67;;;19.50;99.90;;;;;;5010640;28;20288;-89
2023/06/28 05:03:57;;;;;;;4.10;1.47;;;19.50;99.90;;;;;;5008067;28;20237;-90
2023/06/28 05:06:30;;;;;;;2.90;1.50;;;19.50;99.90;;;;;;5016803;28;20308;-89
2023/06/28 05:09:08;;;;;;;1.27;1.17;;;19.50;99.90;;;;;;5005114;28;20629;-90
2023/06/28 05:11:42;;;;;;;2.43;1.47;;;19.50;99.90;;;;;;5004696;28;20210;-89
2023/06/28 05:14:13;;;;;;;1.90;1.30;;;19.40;99.90;;;;;;5003466;28;20214;-90
2023/06/28 05:16:45;;;;;;;3.53;1.30;;;19.40;99.90;;;;;;5008423;28;20230;-89
2023/06/28 05:19:17;;;;;;;3.17;1.60;;;19.30;99.90;;;;;;5005779;28;20735;-90
2023/06/28 05:21:48;;;;;;;1.97;1.13;;;19.30;99.90;;;;;;5005869;28;20198;-89
2023/06/28 05:24:20;;;;;;;2.47;1.20;;;19.30;99.90;;;;;;5001479;28;20305;-89
2023/06/28 05:26:53;;;;;;;2.03;1.20;;;19.20;99.90;;;;;;5001549;28;20206;-89
2023/06/28 05:29:25;;;;;;;1.67;1.30;;;19.20;99.90;;;;;;5009344;28;20232;-89
2023/06/28 05:31:59;;;;;;;3.50;1.50;;;19.30;99.90;;;;;;5005680;28;20201;-88
2023/06/28 05:34:30;;;;;;;3.67;1.33;;;19.20;99.90;;;;;;5008804;28;20305;-88
2023/06/28 05:37:01;;;;;;;4.10;1.30;;;19.20;99.90;;;;;;5011279;28;20269;-88
2023/06/28 05:39:32;;;;;;;3.00;1.10;;;19.20;99.90;;;;;;5013573;28;20292;-89
2023/06/28 05:42:05;;;;;;;5.47;1.17;;;19.20;99.90;;;;;;5003746;28;20237;-89
2023/06/28 05:44:37;;;;;;;1.97;1.10;;;19.20;99.90;;;;;;5007648;28;20284;-89
2023/06/28 05:47:09;;;;;;;4.17;1.00;;;19.20;99.90;;;;;;5004658;28;20245;-89
2023/06/28 05:49:42;;;;;;;1.57;1.30;;;19.20;99.90;;;;;;5003412;28;20240;-88
2023/06/28 05:52:13;;;;;;;3.43;1.17;;;19.10;99.90;;;;;;5008315;28;20210;-88
2023/06/28 05:54:44;;;;;;;1.43;1.10;;;19.10;99.90;;;;;;5018642;28;20240;-89
2023/06/28 05:57:17;;;;;;;3.27;0.97;;;19.10;99.90;;;;;;5002378;28;20256;-89
2023/06/28 05:59:48;;;;;;;1.83;0.90;;;19.10;99.90;;;;;;5007737;28;20198;-89
2023/06/28 06:02:19;;;;;;;1.73;1.03;;;19.00;99.90;;;;;;5006459;28;20198;-89
2023/06/28 06:04:50;;;;;;;1.60;1.00;;;19.00;99.90;;;;;;5018813;28;20214;-88
2023/06/28 06:07:22;;;;;;;1.40;0.77;;;19.00;99.90;;;;;;5014885;28;20312;-89
2023/06/28 06:09:55;;;;;;;2.17;1.00;;;18.90;99.90;;;;;;5007312;28;20292;-88
2023/06/28 06:12:28;;;;;;;2.20;0.93;;;18.90;99.90;;;;;;5007398;28;20629;-89
2023/06/28 06:14:59;;;;;;;1.50;1.20;;;19.00;99.90;;;;;;5004800;28;20273;-89
2023/06/28 06:17:30;;;;;;;1.27;0.90;;;18.90;99.90;;;;;;4999173;28;20308;-89
2023/06/28 06:20:02;;;;;;;1.70;1.30;;;18.90;99.90;;;;;;5009978;28;20263;-88
2023/06/28 06:22:34;;;;;;;2.07;1.07;;;18.80;99.90;;;;;;5014494;28;20216;-88
2023/06/28 06:25:06;;;;;;;3.13;1.30;;;18.80;99.90;;;;;;4996132;28;20288;-88
2023/06/28 06:27:39;;;;;;;0.73;0.73;;;18.80;99.90;;;;;;5001304;28;20217;-88
2023/06/28 06:30:13;;;;;;;0.83;0.80;;;18.70;99.90;;;;;;5005438;28;20202;-88
2023/06/28 06:32:45;;;;;;;1.30;0.80;;;18.70;99.90;;;;;;5015523;28;20205;-89
2023/06/28 06:35:17;;;;;;;1.00;0.90;;;18.70;99.90;;;;;;5002923;28;20207;-89
2023/06/28 06:37:48;;;;;;;1.23;1.00;;;18.60;99.90;;;;;;5005322;28;20233;-88
2023/06/28 06:40:20;;;;;;;3.63;0.90;;;18.60;99.90;;;;;;5005815;28;20214;-89
2023/06/28 06:42:54;;;;;;;1.03;0.93;;;18.50;99.90;;;;;;4997278;28;20214;-89
2023/06/28 06:45:25;;;;;;;1.03;0.80;;;18.50;99.90;;;;;;5012858;28;20248;-89
2023/06/28 06:47:57;;;;;;;1.07;0.60;;;18.50;99.90;;;;;;5013237;28;20255;-86
2023/06/28 06:50:28;;;;;;;0.80;0.80;;;18.40;99.90;;;;;;5015206;28;20206;-89
2023/06/28 06:53:00;;;;;;;0.90;0.80;;;18.40;99.90;;;;;;5005647;28;20203;-88
2023/06/28 06:55:32;;;;;;;1.23;0.80;;;18.40;99.90;;;;;;5007097;28;20244;-89
2023/06/28 06:58:05;;;;;;;0.80;0.73;;;18.30;99.90;;;;;;4996225;28;20234;-88
2023/06/28 07:00:39;;;;;;;0.80;0.80;;;18.20;99.90;;;;;;5011991;28;20229;-88
2023/06/28 07:03:11;;;;;;;0.90;0.60;;;18.20;99.90;;;;;;5020199;28;20280;-88
2023/06/28 07:05:42;;;;;;;0.83;0.70;;;18.20;99.90;;;;;;5014154;28;20225;-88
2023/06/28 07:08:14;;;;;;;0.70;0.70;;;18.20;99.90;;;;;;5000502;28;21123;-88
2023/06/28 07:10:45;;;;;;;0.63;0.63;;;18.10;99.90;;;;;;5014419;28;20674;-89
2023/06/28 07:13:18;;;;;;;0.67;0.67;;;18.10;99.90;;;;;;5008826;28;20618;-88
2023/06/28 07:15:49;;;;;;;1.93;0.83;;;18.00;99.90;;;;;;4995694;28;20214;-88
2023/06/28 07:18:20;;;;;;;1.73;0.73;;;18.00;99.90;;;;;;5010278;28;20297;-89
2023/06/28 07:20:51;;;;;;;1.80;0.80;;;18.00;99.90;;;;;;5008630;28;20260;-89
2023/06/28 07:23:23;;;;;;;0.87;0.70;;;17.90;99.90;;;;;;5013775;28;20213;-89
2023/06/28 07:25:54;;;;;;;4.17;1.00;;;17.90;99.90;;;;;;5013695;28;20233;-89
2023/06/28 07:28:28;;;;;;;1.17;0.77;;;17.80;99.90;;;;;;5026157;28;20217;-88
2023/06/28 07:31:00;;;;;;;1.47;0.80;;;17.80;99.90;;;;;;5027096;28;20236;-88
2023/06/28 07:33:32;;;;;;;1.67;0.77;;;17.70;99.90;;;;;;5014657;28;20209;-89
2023/06/28 07:36:03;;;;;;;1.30;0.90;;;17.70;99.90;;;;;;5014214;28;20277;-89
2023/06/28 07:38:34;;;;;;;1.07;0.80;;;17.70;99.90;;;;;;5012133;28;20661;-90
2023/06/28 07:41:06;;;;;;;0.70;0.70;;;17.70;99.90;;;;;;5006336;28;20280;-89
2023/06/28 07:43:40;;;;;;;2.23;0.90;;;17.60;99.90;;;;;;4994860;28;20528;-89
2023/06/28 07:46:11;;;;;;;1.27;0.90;;;17.60;99.90;;;;;;4998934;28;20275;-89
2023/06/28 07:48:43;;;;;;;1.10;0.67;;;17.50;99.90;;;;;;5013835;28;20205;-87
2023/06/28 07:51:14;;;;;;;3.87;0.90;;;17.40;99.90;;;;;;5014425;28;20664;-88
2023/06/28 07:53:45;;;;;;;1.07;0.90;;;17.40;99.90;;;;;;5014115;28;20229;-88
2023/06/28 07:56:17;;;;;;;1.80;0.80;;;17.40;99.90;;;;;;5010323;28;20261;-89
2023/06/28 07:58:50;;;;;;;1.47;0.80;;;17.30;99.90;;;;;;5008053;28;20854;-89
2023/06/28 08:01:22;;;;;;;1.57;0.77;;;17.20;99.90;;;;;;5013392;28;20229;-89
2023/06/28 08:03:53;;;;;;;2.77;0.70;;;17.20;99.90;;;;;;5013581;28;20209;-89
2023/06/28 08:06:24;;;;;;;0.73;0.73;;;17.20;99.90;;;;;;5014100;28;20229;-89
2023/06/28 08:08:55;;;;;;;1.90;1.13;;;17.10;99.90;;;;;;5006851;28;20269;-89
2023/06/28 08:11:28;;;;;;;1.00;0.80;;;17.10;99.90;;;;;;5014819;28;20268;-89
2023/06/28 08:14:01;;;;;;;2.00;0.80;;;17.10;99.90;;;;;;5016516;28;20216;-90
2023/06/28 08:16:33;;;;;;;1.80;0.70;;;17.10;99.90;;;;;;5027741;28;20201;-88
2023/06/28 08:19:04;;;;;;;0.80;0.80;;;17.00;99.90;;;;;;5029897;28;20237;-87
2023/06/28 08:21:37;;;;;;;0.70;0.70;;;16.90;99.90;;;;;;5020070;28;20270;-90
2023/06/28 08:24:09;;;;;;;1.73;0.70;;;16.90;99.90;;;;;;5021803;28;20231;-87
2023/06/28 08:26:40;;;;;;;2.17;0.73;;;16.90;99.90;;;;;;5017808;28;20205;-88
2023/06/28 08:29:16;;;;;;;4.50;0.90;;;16.80;99.90;;;;;;5018855;28;20650;-88
2023/06/28 08:31:47;;;;;;;0.80;0.60;;;16.80;99.90;;;;;;5018538;28;20215;-88
2023/06/28 08:34:18;;;;;;;1.30;0.77;;;16.80;99.90;;;;;;5018446;28;20201;-88
2023/06/28 08:36:50;;;;;;;1.00;0.90;;;16.70;99.90;;;;;;5018483;28;20210;-89
2023/06/28 08:39:22;;;;;;;2.13;0.87;;;16.70;99.90;;;;;;5004877;28;20269;-88
2023/06/28 08:41:54;;;;;;;0.83;0.70;;;16.70;99.90;;;;;;5016514;28;20249;-88
2023/06/28 08:44:31;;;;;;;1.93;0.90;;;16.70;99.90;;;;;;5017242;28;20746;-87
2023/06/28 08:47:05;;;;;;;0.70;0.70;;;16.60;99.90;;;;;;5017516;28;20288;-88
2023/06/28 08:49:37;;;;;;;0.80;0.70;;;16.60;99.90;;;;;;5014338;28;20677;-88
2023/06/28 08:52:10;;;;;;;0.80;0.77;;;16.60;99.90;;;;;;5003521;28;20701;-88
2023/06/28 08:54:42;;;;;;;0.80;0.80;;;16.50;99.90;;;;;;5012018;28;20705;-89
2023/06/28 08:57:14;;;;;;;1.77;0.83;;;16.50;99.90;;;;;;5006642;28;20261;-89
2023/06/28 08:59:49;;;;;;;0.63;0.63;;;16.50;99.90;;;;;;5013777;28;20251;-89
2023/06/28 09:02:22;;;;;;;1.00;0.90;;;16.50;99.90;;;;;;5016914;28;20591;-88
2023/06/28 09:04:54;;;;;;;0.80;0.70;;;16.40;99.90;;;;;;5016915;28;20289;-87
2023/06/28 09:07:27;;;;;;;1.27;0.90;;;16.40;99.90;;;;;;5023927;28;20268;-88
2023/06/28 09:09:59;;;;;;;1.03;0.70;;;16.30;99.90;;;;;;5025958;28;20276;-89
2023/06/28 09:12:30;;;;;;;1.03;0.87;;;16.30;99.90;;;;;;5016642;28;20625;-88
2023/06/28 09:15:03;;;;;;;0.90;0.70;;;16.30;99.90;;;;;;5007617;28;20298;-89
2023/06/28 09:17:34;;;;;;;1.93;0.90;;;16.30;99.90;;;;;;4997506;28;20370;-89
2023/06/28 09:20:17;;;;;;;0.83;0.70;;;16.20;99.90;;;;;;4996764;28;20248;-88
2023/06/28 09:22:59;;;;;;;2.03;0.87;;;16.20;99.90;;;;;;5003376;28;20297;-87
2023/06/28 09:25:33;;;;;;;0.80;0.70;;;16.10;99.90;;;;;;5015734;28;20237;-87
2023/06/28 09:28:08;;;;;;;1.17;1.07;;;16.10;99.90;;;;;;5015580;28;20240;-88
2023/06/28 09:30:41;;;;;;;0.90;0.77;;;16.10;99.90;;;;;;5016207;28;20243;-88
2023/06/28 09:33:12;;;;;;;3.27;0.97;;;16.00;99.90;;;;;;5015923;28;20209;-88
2023/06/28 09:35:44;;;;;;;1.03;0.80;;;16.00;99.90;;;;;;5016354;28;20298;-88
2023/06/28 09:38:15;;;;;;;0.73;0.73;;;16.00;99.90;;;;;;5012902;28;20634;-89
2023/06/28 09:40:54;;;;;;;1.23;1.00;;;15.90;99.90;;;;;;4996884;28;20242;-88
2023/06/28 09:43:26;;;;;;;0.90;0.90;;;15.90;99.90;;;;;;5009162;28;20302;-88
2023/06/28 09:46:10;;;;;;;3.90;0.87;;;15.90;99.90;;;;;;5001767;28;20210;-87
2023/06/28 09:48:45;;;;;;;1.30;1.00;;;15.80;99.90;;;;;;5004636;28;20225;-88
2023/06/28 09:51:18;;;;;;;0.97;0.83;;;15.80;99.90;;;;;;5015725;28;20201;-88
2023/06/28 09:53:52;;;;;;;4.27;0.83;;;15.80;99.90;;;;;;5015774;28;20640;-89
2023/06/28 09:56:29;;;;;;;0.70;0.70;;;15.70;99.90;;;;;;5014593;28;20201;-88
2023/06/28 09:59:03;;;;;;;4.67;0.83;;;15.70;99.90;;;;;;5011608;28;20225;-89
2023/06/28 10:01:41;;;;;;;1.03;0.80;;;15.70;99.90;;;;;;5013116;28;20289;-88
2023/06/28 10:04:13;;;;;;;1.93;1.10;;;15.60;99.90;;;;;;4997134;28;20285;-89
2023/06/28 10:06:46;;;;;;;1.30;0.90;;;15.60;99.90;;;;;;4995869;28;20230;-88
2023/06/28 10:09:22;;;;;;;0.90;0.83;;;15.50;99.90;;;;;;5008791;28;20280;-88
2023/06/28 10:11:55;;;;;;;1.80;1.10;;;15.50;99.90;;;;;;5013949;28;20205;-88
2023/06/28 10:14:32;;;;;;;1.07;0.80;;;15.40;99.90;;;;;;5015088;28;20582;-89
2023/06/28 10:17:08;;;;;;;1.00;0.90;;;15.40;99.90;;;;;;5015561;28;20932;-87
2023/06/28 10:19:40;;;;;;;1.03;0.93;;;15.30;99.90;;;;;;5014523;28;20235;-89
2023/06/28 10:22:12;;;;;;;0.80;0.80;;;15.30;99.90;;;;;;5005177;28;20198;-88
2023/06/28 10:24:44;;;;;;;0.80;0.80;;;15.30;99.90;;;;;;5015368;28;20658;-88
2023/06/28 10:27:17;;;;;;;0.97;0.90;;;15.20;99.90;;;;;;5026989;28;20214;-89
2023/06/28 10:29:51;;;;;;;1.90;0.77;;;15.20;99.90;;;;;;5024890;28;20209;-88
2023/06/28 10:32:25;;;;;;;2.07;0.97;;;15.20;99.90;;;;;;5024773;28;20199;-88
2023/06/28 10:34:59;;;;;;;1.20;0.90;;;15.10;99.90;;;;;;5014499;28;20197;-89
2023/06/28 10:37:30;;;;;;;0.97;0.93;;;15.10;99.90;;;;;;4995524;28;20206;-90
2023/06/28 10:40:04;;;;;;;1.43;1.00;;;15.10;99.90;;;;;;5013332;28;20257;-88
2023/06/28 10:42:40;;;;;;;1.60;1.20;;;15.10;99.90;;;;;;5015056;28;20300;-89
2023/06/28 10:45:12;;;;;;;1.00;0.90;;;15.10;99.90;;;;;;5015122;28;20252;-88
2023/06/28 10:47:57;;;;;;;1.40;0.80;;;15.10;99.90;;;;;;5013361;28;20241;-89
2023/06/28 10:50:29;;;;;;;1.23;0.83;;;15.00;99.90;;;;;;4998712;28;20229;-89
2023/06/28 10:53:00;;;;;;;1.63;1.00;;;15.00;99.90;;;;;;5004524;28;20206;-89
2023/06/28 10:55:33;;;;;;;1.07;0.90;;;15.00;99.90;;;;;;5004697;28;20201;-89
2023/06/28 10:58:09;;;;;;;2.00;1.20;;;15.00;99.90;;;;;;5012080;28;20618;-89
2023/06/28 11:00:44;;;;;;;1.17;1.07;;;15.00;99.90;;;;;;4998217;28;20340;-89
2023/06/28 11:03:21;;;;;;;1.20;1.10;;;14.90;99.90;;;;;;5009021;28;20225;-89
2023/06/28 11:05:56;;;;;;;1.27;1.17;;;14.90;99.90;;;;;;4995690;28;20678;-89
2023/06/28 11:08:40;;;;;;;1.80;0.90;;;14.90;99.90;;;;;;4995913;28;20237;-88
2023/06/28 11:11:22;;;;;;;2.03;1.20;;;14.90;99.90;;;;;;5021135;28;20635;-88
2023/06/28 11:13:53;;;;;;;1.40;1.30;;;14.80;99.90;;;;;;5004606;28;20736;-88
2023/06/28 11:16:25;;;;;;;1.67;1.00;;;14.80;99.90;;;;;;5015502;28;20237;-88
2023/06/28 11:19:18;;;;;;;1.10;0.90;;;14.80;99.90;;;;;;5013685;28;20252;-88
2023/06/28 11:21:56;;;;;;;1.07;0.87;;;14.80;99.90;;;;;;5013661;28;20282;-87
2023/06/28 11:24:42;;;;;;;1.40;1.30;;;14.80;99.90;;;;;;5013573;28;20205;-88
2023/06/28 11:27:14;;;;;;;1.73;0.90;;;14.80;99.90;;;;;;5014231;28;20218;-89
2023/06/28 11:29:56;;;;;;;1.00;0.90;;;14.80;99.90;;;;;;5001463;28;20292;-89
2023/06/28 11:32:32;;;;;;;4.70;1.10;;;14.80;99.90;;;;;;4994958;28;20214;-89
2023/06/28 11:35:06;;;;;;;1.20;0.90;;;14.70;99.90;;;;;;4994384;28;20216;-89
2023/06/28 11:37:39;;;;;;;2.60;1.00;;;14.60;99.90;;;;;;4998758;28;20209;-89
2023/06/28 11:40:12;;;;;;;1.90;1.17;;;14.60;99.90;;;;;;4999336;28;20571;-89
2023/06/28 11:42:47;;;;;;;1.80;1.10;;;14.60;99.90;;;;;;4994224;28;20718;-89
2023/06/28 11:45:22;;;;;;;1.20;1.10;;;14.60;99.90;;;;;;4993654;28;20210;-89
2023/06/28 11:47:54;;;;;;;2.40;1.10;;;14.50;99.90;;;;;;5009292;28;20287;-89
2023/06/28 11:50:26;;;;;;;1.97;1.10;;;14.50;99.90;;;;;;4998952;28;20210;-89
2023/06/28 11:52:58;;;;;;;2.30;1.00;;;14.50;99.90;;;;;;5013787;28;20673;-89
2023/06/28 11:55:30;;;;;;;1.30;1.00;;;14.40;99.90;;;;;;5009846;28;20629;-89
2023/06/28 11:58:01;;;;;;;1.60;1.30;;;14.30;99.90;;;;;;4992640;28;20564;-89
2023/06/28 12:00:40;;;;;;;1.17;1.07;;;14.30;99.90;;;;;;5011471;28;20746;-89
2023/06/28 12:03:12;;;;;;;1.40;1.30;;;14.30;99.90;;;;;;4994574;28;20321;-89
2023/06/28 12:05:55;;;;;;;2.30;1.13;;;14.20;99.90;;;;;;5012177;28;20241;-89
2023/06/28 12:08:26;;;;;;;1.27;0.90;;;14.20;99.90;;;;;;5012339;28;20213;-90
2023/06/28 12:10:58;;;;;;;1.80;1.07;;;14.20;99.90;;;;;;5013737;28;20202;-89
2023/06/28 12:13:30;;;;;;;1.17;1.03;;;14.20;99.90;;;;;;5001231;28;20651;-90
2023/06/28 12:16:12;;;;;;;1.53;1.10;;;14.20;99.90;;;;;;5012905;28;20232;-88
2023/06/28 12:18:57;;;;;;;2.40;1.20;;;14.10;99.90;;;;;;5002126;28;20206;-89
2023/06/28 12:21:32;;;;;;;2.63;1.03;;;14.10;99.90;;;;;;5008631;28;20845;-88
2023/06/28 12:24:17;;;;;;;1.20;1.10;;;14.10;99.90;;;;;;5008914;28;20217;-88
2023/06/28 12:26:51;;;;;;;2.40;1.30;;;14.20;99.90;;;;;;5003608;28;20283;-88
2023/06/28 12:29:23;;;;;;;1.20;1.10;;;14.20;99.90;;;;;;4996261;28;20239;-88
2023/06/28 12:31:56;;;;;;;2.00;1.20;;;14.10;99.90;;;;;;5003555;28;20309;-89
2023/06/28 12:34:28;;;;;;;2.07;1.50;;;14.20;99.90;;;;;;5013922;28;20296;-89
2023/06/28 12:37:05;;;;;;;1.47;1.33;;;14.20;99.90;;;;;;5009112;28;20263;-87
2023/06/28 12:39:39;;;;;;;1.43;1.20;;;14.20;99.90;;;;;;5006245;28;20664;-88
2023/06/28 12:42:12;;;;;;;2.70;1.30;;;14.10;99.90;;;;;;5006475;28;20229;-88
2023/06/28 12:44:51;;;;;;;1.70;1.30;;;14.10;99.90;;;;;;5001581;28;20722;-90
2023/06/28 12:47:24;;;;;;;1.93;1.30;;;14.20;99.90;;;;;;5015188;28;20205;-87
2023/06/28 12:49:56;;;;;;;2.00;1.30;;;14.20;99.90;;;;;;5008749;28;20218;-88
2023/06/28 12:52:30;;;;;;;1.30;1.20;;;14.20;99.90;;;;;;5013300;28;20209;-89
2023/06/28 12:55:03;;;;;;;2.87;1.57;;;14.30;99.90;;;;;;5000270;28;20202;-88
2023/06/28 12:57:35;;;;;;;1.53;1.20;;;14.30;99.90;;;;;;5002445;28;20206;-91
2023/06/28 13:00:08;;;;;;;1.20;1.10;;;14.30;99.90;;;;;;5014294;28;20551;-88
2023/06/28 13:02:41;;;;;;;1.37;1.27;;;14.30;99.90;;;;;;5002377;28;20288;-89
2023/06/28 13:05:12;;;;;;;1.30;1.20;;;14.30;99.90;;;;;;5005978;28;20206;-88
2023/06/28 13:07:46;;;;;;;2.57;1.00;;;14.30;99.90;;;;;;5012988;28;20221;-89
2023/06/28 13:10:18;;;;;;;1.70;1.30;;;14.30;99.90;;;;;;4997333;28;20241;-89
2023/06/28 13:12:50;;;;;;;1.33;1.23;;;14.30;99.90;;;;;;5015745;28;20679;-89
2023/06/28 13:15:21;;;;;;;1.30;1.20;;;14.30;99.90;;;;;;5015390;28;20222;-89